Bergamo / Orio Al Serio Airport LIME

Flugplatz Daten

Name: Bergamo / Orio Al Serio Airport

Ident: LIME

Lat: 45,6739006

Long: 9,704170227

Platzhöhe: 782 ft

IataCode: BGY

City: Bergamo

Homepage: http://www.sacbo.it/

Metar

2021/08/05 13:20
LIME 051320Z VRB04KT 9999 FEW110 27/16 Q1006 NOSIG

Taf

2021/08/05 12:00
TAF LIME 051100Z 0512/0612 VRB05KT 9999 FEW050
TEMPO 0512/0517 TSRA
TEMPO 0602/0610 SHRA
Gewünschte Webcam nicht vorhanden? Dann fügen Sie eine hinzu. Sie wird dann so schnell wie möglich freigeschaltet
Url: Title: